sensor_id;sensor_type;location;lat;lon;timestamp;pressure;altitude;pressure_sealevel;temperature;humidity
49367;BME280;35245;52.026;8.540;2023-06-14T00:00:18;51086.03;;;-145.42;79.06
49367;BME280;35245;52.026;8.540;2023-06-14T00:02:45;51068.19;;;-145.42;78.60
49367;BME280;35245;52.026;8.540;2023-06-14T00:05:12;51066.22;;;-145.42;80.95
49367;BME280;35245;52.026;8.540;2023-06-14T00:07:41;51068.19;;;-145.42;81.00
49367;BME280;35245;52.026;8.540;2023-06-14T00:10:11;51064.22;;;-145.42;82.06
49367;BME280;35245;52.026;8.540;2023-06-14T00:12:39;51070.16;;;-145.42;81.37
49367;BME280;35245;52.026;8.540;2023-06-14T00:15:07;51097.91;;;-145.42;81.27
49367;BME280;35245;52.026;8.540;2023-06-14T00:17:35;51086.03;;;-145.42;82.20
49367;BME280;35245;52.026;8.540;2023-06-14T00:20:05;51084.03;;;-145.42;82.64
49367;BME280;35245;52.026;8.540;2023-06-14T00:22:33;51086.03;;;-145.42;83.16
49367;BME280;35245;52.026;8.540;2023-06-14T00:25:02;51093.97;;;-145.42;83.73
49367;BME280;35245;52.026;8.540;2023-06-14T00:27:31;51082.06;;;-145.42;82.96
49367;BME280;35245;52.026;8.540;2023-06-14T00:29:58;51066.22;;;-145.42;83.65
49367;BME280;35245;52.026;8.540;2023-06-14T00:32:25;51070.16;;;-145.42;82.69
49367;BME280;35245;52.026;8.540;2023-06-14T00:34:53;51082.06;;;-145.42;83.93
49367;BME280;35245;52.026;8.540;2023-06-14T00:37:21;51080.09;;;-145.42;83.33
49367;BME280;35245;52.026;8.540;2023-06-14T00:39:49;51082.06;;;-145.42;83.02
49367;BME280;35245;52.026;8.540;2023-06-14T00:42:24;51082.06;;;-145.42;84.82
49367;BME280;35245;52.026;8.540;2023-06-14T00:44:53;51068.19;;;-145.42;84.98
49367;BME280;35245;52.026;8.540;2023-06-14T00:47:21;51068.19;;;-145.42;85.42
49367;BME280;35245;52.026;8.540;2023-06-14T00:49:49;51078.09;;;-145.42;85.93
49367;BME280;35245;52.026;8.540;2023-06-14T00:52:18;51054.31;;;-145.42;86.18
49367;BME280;35245;52.026;8.540;2023-06-14T00:54:46;51111.81;;;-145.42;87.06
49367;BME280;35245;52.026;8.540;2023-06-14T00:57:14;51058.28;;;-145.42;88.22
49367;BME280;35245;52.026;8.540;2023-06-14T00:59:44;51072.16;;;-145.42;88.15
49367;BME280;35245;52.026;8.540;2023-06-14T01:02:14;51060.25;;;-145.42;90.35
49367;BME280;35245;52.026;8.540;2023-06-14T01:04:44;51099.91;;;-145.42;90.25
49367;BME280;35245;52.026;8.540;2023-06-14T01:07:25;51078.09;;;-145.42;91.33
49367;BME280;35245;52.026;8.540;2023-06-14T01:10:08;51056.28;;;-145.42;92.82
49367;BME280;35245;52.026;8.540;2023-06-14T01:12:47;51076.13;;;-145.42;92.86
49367;BME280;35245;52.026;8.540;2023-06-14T01:15:17;51068.19;;;-145.42;92.77
49367;BME280;35245;52.026;8.540;2023-06-14T01:17:50;51060.25;;;-145.42;93.34
49367;BME280;35245;52.026;8.540;2023-06-14T01:20:21;51048.38;;;-145.42;94.56
49367;BME280;35245;52.026;8.540;2023-06-14T01:22:52;51066.22;;;-145.42;94.39
49367;BME280;35245;52.026;8.540;2023-06-14T01:25:20;51054.31;;;-145.42;94.24
49367;BME280;35245;52.026;8.540;2023-06-14T01:27:49;51060.25;;;-145.42;95.21
49367;BME280;35245;52.026;8.540;2023-06-14T01:30:18;51060.25;;;-145.42;95.04
49367;BME280;35245;52.026;8.540;2023-06-14T01:32:47;51032.50;;;-145.42;95.75
49367;BME280;35245;52.026;8.540;2023-06-14T01:35:16;51076.13;;;-145.42;96.22
49367;BME280;35245;52.026;8.540;2023-06-14T01:37:44;51038.47;;;-145.42;96.99
49367;BME280;35245;52.026;8.540;2023-06-14T01:40:15;51048.38;;;-145.42;97.49
49367;BME280;35245;52.026;8.540;2023-06-14T01:42:44;51060.25;;;-145.42;97.96
49367;BME280;35245;52.026;8.540;2023-06-14T01:45:13;51068.19;;;-145.42;98.84
49367;BME280;35245;52.026;8.540;2023-06-14T01:47:41;51044.41;;;-145.42;99.37
49367;BME280;35245;52.026;8.540;2023-06-14T01:50:09;51050.34;;;-145.42;99.76
49367;BME280;35245;52.026;8.540;2023-06-14T01:52:37;51054.31;;;-145.42;99.51
49367;BME280;35245;52.026;8.540;2023-06-14T01:55:05;51030.53;;;-145.42;100.00
49367;BME280;35245;52.026;8.540;2023-06-14T01:57:35;51050.34;;;-145.42;100.00
49367;BME280;35245;52.026;8.540;2023-06-14T02:00:02;51030.53;;;-145.42;100.00
49367;BME280;35245;52.026;8.540;2023-06-14T02:02:31;51034.50;;;-145.42;100.00
49367;BME280;35245;52.026;8.540;2023-06-14T02:04:58;51050.34;;;-145.42;100.00
49367;BME280;35245;52.026;8.540;2023-06-14T02:07:25;51054.31;;;-145.42;100.00
49367;BME280;35245;52.026;8.540;2023-06-14T02:09:52;51052.34;;;-145.42;100.00
49367;BME280;35245;52.026;8.540;2023-06-14T02:12:19;51028.53;;;-145.42;100.00
49367;BME280;35245;52.026;8.540;2023-06-14T02:14:48;51032.50;;;-145.42;100.00
49367;BME280;35245;52.026;8.540;2023-06-14T02:17:15;51066.22;;;-145.42;100.00
49367;BME280;35245;52.026;8.540;2023-06-14T02:19:43;51048.38;;;-145.42;100.00
49367;BME280;35245;52.026;8.540;2023-06-14T02:22:10;51018.63;;;-145.42;100.00
49367;BME280;35245;52.026;8.540;2023-06-14T02:24:37;51058.28;;;-145.42;100.00
49367;BME280;35245;52.026;8.540;2023-06-14T02:27:05;51034.50;;;-145.42;100.00
49367;BME280;35245;52.026;8.540;2023-06-14T02:29:32;51014.66;;;-145.42;100.00
49367;BME280;35245;52.026;8.540;2023-06-14T02:32:00;51028.53;;;-145.42;100.00
49367;BME280;35245;52.026;8.540;2023-06-14T02:34:28;51048.38;;;-145.42;100.00
49367;BME280;35245;52.026;8.540;2023-06-14T02:36:55;51042.41;;;-145.42;100.00
49367;BME280;35245;52.026;8.540;2023-06-14T02:39:23;51030.53;;;-145.42;100.00
49367;BME280;35245;52.026;8.540;2023-06-14T02:41:50;51050.34;;;-145.42;100.00
49367;BME280;35245;52.026;8.540;2023-06-14T02:44:18;51054.31;;;-145.42;100.00
49367;BME280;35245;52.026;8.540;2023-06-14T02:46:45;51050.34;;;-145.42;100.00
49367;BME280;35245;52.026;8.540;2023-06-14T02:49:14;51022.59;;;-145.42;100.00
49367;BME280;35245;52.026;8.540;2023-06-14T02:51:41;51026.56;;;-145.42;100.00
49367;BME280;35245;52.026;8.540;2023-06-14T02:54:08;51010.72;;;-145.42;100.00
49367;BME280;35245;52.026;8.540;2023-06-14T02:56:35;51050.34;;;-145.42;100.00
49367;BME280;35245;52.026;8.540;2023-06-14T02:59:02;51038.47;;;-145.42;100.00
49367;BME280;35245;52.026;8.540;2023-06-14T03:01:29;51022.59;;;-145.42;100.00
49367;BME280;35245;52.026;8.540;2023-06-14T03:04:00;51028.53;;;-145.42;100.00
49367;BME280;35245;52.026;8.540;2023-06-14T03:06:30;51018.63;;;-145.42;100.00
49367;BME280;35245;52.026;8.540;2023-06-14T03:08:57;51028.53;;;-145.42;100.00
49367;BME280;35245;52.026;8.540;2023-06-14T03:11:26;51060.25;;;-145.42;100.00
49367;BME280;35245;52.026;8.540;2023-06-14T03:13:54;51052.34;;;-145.42;100.00
49367;BME280;35245;52.026;8.540;2023-06-14T03:16:22;51044.41;;;-145.42;100.00
49367;BME280;35245;52.026;8.540;2023-06-14T03:18:50;51050.34;;;-145.42;100.00
49367;BME280;35245;52.026;8.540;2023-06-14T03:21:18;51048.38;;;-145.42;100.00
49367;BME280;35245;52.026;8.540;2023-06-14T03:23:46;51032.50;;;-145.42;100.00
49367;BME280;35245;52.026;8.540;2023-06-14T03:26:14;51034.50;;;-145.42;100.00
49367;BME280;35245;52.026;8.540;2023-06-14T03:28:43;51024.59;;;-145.42;100.00
49367;BME280;35245;52.026;8.540;2023-06-14T03:31:11;51042.41;;;-145.42;100.00
49367;BME280;35245;52.026;8.540;2023-06-14T03:33:38;51014.66;;;-145.42;100.00
49367;BME280;35245;52.026;8.540;2023-06-14T03:36:05;51006.75;;;-145.42;100.00
49367;BME280;35245;52.026;8.540;2023-06-14T03:38:33;51032.50;;;-145.42;100.00
49367;BME280;35245;52.026;8.540;2023-06-14T03:41:02;51026.56;;;-145.42;100.00
49367;BME280;35245;52.026;8.540;2023-06-14T03:43:29;51028.53;;;-145.42;100.00
49367;BME280;35245;52.026;8.540;2023-06-14T03:45:56;51020.63;;;-145.42;100.00
49367;BME280;35245;52.026;8.540;2023-06-14T03:48:24;51010.72;;;-145.42;100.00
49367;BME280;35245;52.026;8.540;2023-06-14T03:50:51;51020.63;;;-145.42;100.00
49367;BME280;35245;52.026;8.540;2023-06-14T03:53:18;51020.63;;;-145.42;100.00
49367;BME280;35245;52.026;8.540;2023-06-14T03:55:46;51032.50;;;-145.42;100.00
49367;BME280;35245;52.026;8.540;2023-06-14T03:58:15;51028.53;;;-145.42;100.00
49367;BME280;35245;52.026;8.540;2023-06-14T04:00:42;51022.59;;;-145.42;100.00
49367;BME280;35245;52.026;8.540;2023-06-14T04:03:11;51016.66;;;-145.42;100.00
49367;BME280;35245;52.026;8.540;2023-06-14T04:05:39;51024.59;;;-145.42;100.00
49367;BME280;35245;52.026;8.540;2023-06-14T04:08:07;51030.53;;;-145.42;100.00
49367;BME280;35245;52.026;8.540;2023-06-14T04:10:36;51032.50;;;-145.42;100.00
49367;BME280;35245;52.026;8.540;2023-06-14T04:13:04;51036.47;;;-145.42;100.00
49367;BME280;35245;52.026;8.540;2023-06-14T04:15:34;51042.41;;;-145.42;100.00
49367;BME280;35245;52.026;8.540;2023-06-14T04:18:03;51016.66;;;-145.42;100.00
49367;BME280;35245;52.026;8.540;2023-06-14T04:20:30;51018.63;;;-145.42;100.00
49367;BME280;35245;52.026;8.540;2023-06-14T04:22:57;51010.72;;;-145.42;100.00
49367;BME280;35245;52.026;8.540;2023-06-14T04:25:27;51046.38;;;-145.42;100.00
49367;BME280;35245;52.026;8.540;2023-06-14T04:27:56;51044.41;;;-145.42;100.00
49367;BME280;35245;52.026;8.540;2023-06-14T04:30:24;51032.50;;;-145.42;100.00
49367;BME280;35245;52.026;8.540;2023-06-14T04:32:54;51034.50;;;-145.42;100.00
49367;BME280;35245;52.026;8.540;2023-06-14T04:35:21;51028.53;;;-145.42;100.00
49367;BME280;35245;52.026;8.540;2023-06-14T04:37:49;51036.47;;;-145.42;100.00
49367;BME280;35245;52.026;8.540;2023-06-14T04:40:17;51054.31;;;-145.42;100.00
49367;BME280;35245;52.026;8.540;2023-06-14T04:42:44;51044.41;;;-145.42;100.00
49367;BME280;35245;52.026;8.540;2023-06-14T04:45:12;51044.41;;;-145.42;100.00
49367;BME280;35245;52.026;8.540;2023-06-14T04:47:41;51048.38;;;-145.42;100.00
49367;BME280;35245;52.026;8.540;2023-06-14T04:50:10;51024.59;;;-145.42;100.00
49367;BME280;35245;52.026;8.540;2023-06-14T04:52:38;51032.50;;;-145.42;100.00
49367;BME280;35245;52.026;8.540;2023-06-14T04:55:06;51066.22;;;-145.42;100.00
49367;BME280;35245;52.026;8.540;2023-06-14T04:57:33;51022.59;;;-145.42;100.00
49367;BME280;35245;52.026;8.540;2023-06-14T05:00:00;51070.16;;;-145.42;100.00
49367;BME280;35245;52.026;8.540;2023-06-14T05:02:30;51038.47;;;-145.42;100.00
49367;BME280;35245;52.026;8.540;2023-06-14T05:04:57;51054.31;;;-145.42;100.00
49367;BME280;35245;52.026;8.540;2023-06-14T05:07:26;51060.25;;;-145.42;95.54
49367;BME280;35245;52.026;8.540;2023-06-14T05:09:53;51101.88;;;-145.42;89.77
49367;BME280;35245;52.026;8.540;2023-06-14T05:12:20;51109.81;;;-145.42;89.78
49367;BME280;35245;52.026;8.540;2023-06-14T05:14:49;51076.13;;;-145.42;93.22
49367;BME280;35245;52.026;8.540;2023-06-14T05:17:16;51099.91;;;-145.42;96.95
49367;BME280;35245;52.026;8.540;2023-06-14T05:19:43;51080.09;;;-145.42;100.00
49367;BME280;35245;52.026;8.540;2023-06-14T05:22:10;51050.34;;;-145.42;100.00
49367;BME280;35245;52.026;8.540;2023-06-14T05:24:39;51066.22;;;-145.42;100.00
49367;BME280;35245;52.026;8.540;2023-06-14T05:27:07;51050.34;;;-145.42;100.00
49367;BME280;35245;52.026;8.540;2023-06-14T05:29:34;51066.22;;;-145.42;100.00
49367;BME280;35245;52.026;8.540;2023-06-14T05:32:02;51050.34;;;-145.42;100.00
49367;BME280;35245;52.026;8.540;2023-06-14T05:34:29;51028.53;;;-145.42;100.00
49367;BME280;35245;52.026;8.540;2023-06-14T05:36:56;51030.53;;;-145.42;100.00
49367;BME280;35245;52.026;8.540;2023-06-14T05:39:23;51038.47;;;-145.42;98.77
49367;BME280;35245;52.026;8.540;2023-06-14T05:41:52;51072.16;;;-145.42;93.95
49367;BME280;35245;52.026;8.540;2023-06-14T05:44:19;51076.13;;;-145.42;92.83
49367;BME280;35245;52.026;8.540;2023-06-14T05:46:46;51078.09;;;-145.42;91.35
49367;BME280;35245;52.026;8.540;2023-06-14T05:49:13;51062.25;;;-145.42;92.54
49367;BME280;35245;52.026;8.540;2023-06-14T05:51:40;51090.00;;;-145.42;90.24
49367;BME280;35245;52.026;8.540;2023-06-14T05:54:07;51091.97;;;-145.42;87.26
49367;BME280;35245;52.026;8.540;2023-06-14T05:56:34;51095.94;;;-145.42;90.79
49367;BME280;35245;52.026;8.540;2023-06-14T05:59:03;51084.03;;;-145.42;91.28
49367;BME280;35245;52.026;8.540;2023-06-14T06:01:30;51078.09;;;-145.42;93.17
49367;BME280;35245;52.026;8.540;2023-06-14T06:03:59;51109.81;;;-145.42;86.07
49367;BME280;35245;52.026;8.540;2023-06-14T06:06:26;51135.59;;;-145.42;82.96
49367;BME280;35245;52.026;8.540;2023-06-14T06:08:54;51091.97;;;-145.42;87.59
49367;BME280;35245;52.026;8.540;2023-06-14T06:11:21;51113.78;;;-145.42;90.72
49367;BME280;35245;52.026;8.540;2023-06-14T06:13:48;51090.00;;;-145.42;96.57
49367;BME280;35245;52.026;8.540;2023-06-14T06:16:16;51078.09;;;-145.42;98.79
49367;BME280;35245;52.026;8.540;2023-06-14T06:18:44;51097.91;;;-145.42;97.69
49367;BME280;35245;52.026;8.540;2023-06-14T06:21:11;51054.31;;;-145.42;100.00
49367;BME280;35245;52.026;8.540;2023-06-14T06:23:38;51046.38;;;-145.42;100.00
49367;BME280;35245;52.026;8.540;2023-06-14T06:26:05;51088.00;;;-145.42;100.00
49367;BME280;35245;52.026;8.540;2023-06-14T06:28:32;51072.16;;;-145.42;100.00
49367;BME280;35245;52.026;8.540;2023-06-14T06:30:59;51074.13;;;-145.42;100.00
49367;BME280;35245;52.026;8.540;2023-06-14T06:33:28;51060.25;;;-145.42;100.00
49367;BME280;35245;52.026;8.540;2023-06-14T06:35:55;51076.13;;;-145.42;100.00
49367;BME280;35245;52.026;8.540;2023-06-14T06:38:22;51056.28;;;-145.42;100.00
49367;BME280;35245;52.026;8.540;2023-06-14T06:40:49;51080.09;;;-145.42;100.00
49367;BME280;35245;52.026;8.540;2023-06-14T06:43:16;51060.25;;;-145.42;100.00
49367;BME280;35245;52.026;8.540;2023-06-14T06:45:43;51054.31;;;-145.42;100.00
49367;BME280;35245;52.026;8.540;2023-06-14T06:48:10;51060.25;;;-145.42;100.00
49367;BME280;35245;52.026;8.540;2023-06-14T06:50:39;51044.41;;;-145.42;99.47
49367;BME280;35245;52.026;8.540;2023-06-14T06:53:06;51072.16;;;-145.42;100.00
49367;BME280;35245;52.026;8.540;2023-06-14T06:55:33;51078.09;;;-145.42;100.00
49367;BME280;35245;52.026;8.540;2023-06-14T06:58:00;51044.41;;;-145.42;100.00
49367;BME280;35245;52.026;8.540;2023-06-14T07:00:30;51066.22;;;-145.42;100.00
49367;BME280;35245;52.026;8.540;2023-06-14T07:02:57;51078.09;;;-145.42;96.98
49367;BME280;35245;52.026;8.540;2023-06-14T07:05:24;51052.34;;;-145.42;98.02
49367;BME280;35245;52.026;8.540;2023-06-14T07:07:53;51064.22;;;-145.42;95.99
49367;BME280;35245;52.026;8.540;2023-06-14T07:10:20;51048.38;;;-145.42;100.00
49367;BME280;35245;52.026;8.540;2023-06-14T07:12:47;51068.19;;;-145.42;99.13
49367;BME280;35245;52.026;8.540;2023-06-14T07:15:15;51068.19;;;-145.42;100.00
49367;BME280;35245;52.026;8.540;2023-06-14T07:17:42;51066.22;;;-145.42;99.93
49367;BME280;35245;52.026;8.540;2023-06-14T07:20:10;51082.06;;;-145.42;98.03
49367;BME280;35245;52.026;8.540;2023-06-14T07:22:39;51082.06;;;-145.42;96.56
49367;BME280;35245;52.026;8.540;2023-06-14T07:25:09;51072.16;;;-145.42;96.67
49367;BME280;35245;52.026;8.540;2023-06-14T07:27:39;51084.03;;;-145.42;96.59
49367;BME280;35245;52.026;8.540;2023-06-14T07:30:08;51056.28;;;-145.42;95.96
49367;BME280;35245;52.026;8.540;2023-06-14T07:32:36;51062.25;;;-145.42;99.98
49367;BME280;35245;52.026;8.540;2023-06-14T07:35:04;51072.16;;;-145.42;96.63
49367;BME280;35245;52.026;8.540;2023-06-14T07:37:32;51097.91;;;-145.42;96.44
49367;BME280;35245;52.026;8.540;2023-06-14T07:39:59;51072.16;;;-145.42;96.04
49367;BME280;35245;52.026;8.540;2023-06-14T07:42:27;51093.97;;;-145.42;96.57
49367;BME280;35245;52.026;8.540;2023-06-14T07:44:54;51060.25;;;-145.42;98.12
49367;BME280;35245;52.026;8.540;2023-06-14T07:47:21;51097.91;;;-145.42;96.61
49367;BME280;35245;52.026;8.540;2023-06-14T07:49:49;51090.00;;;-145.42;95.90
49367;BME280;35245;52.026;8.540;2023-06-14T07:52:16;51070.16;;;-145.42;95.93
49367;BME280;35245;52.026;8.540;2023-06-14T07:54:43;51070.16;;;-145.42;95.39
49367;BME280;35245;52.026;8.540;2023-06-14T07:57:10;51095.94;;;-145.42;93.22
49367;BME280;35245;52.026;8.540;2023-06-14T07:59:39;51078.09;;;-145.42;93.02
49367;BME280;35245;52.026;8.540;2023-06-14T08:02:06;51082.06;;;-145.42;90.95
49367;BME280;35245;52.026;8.540;2023-06-14T08:04:33;51095.94;;;-145.42;92.12
49367;BME280;35245;52.026;8.540;2023-06-14T08:07:00;51086.03;;;-145.42;90.30
49367;BME280;35245;52.026;8.540;2023-06-14T08:09:28;51101.88;;;-145.42;91.81
49367;BME280;35245;52.026;8.540;2023-06-14T08:11:55;51082.06;;;-145.42;91.01
49367;BME280;35245;52.026;8.540;2023-06-14T08:14:22;51066.22;;;-145.42;92.92
49367;BME280;35245;52.026;8.540;2023-06-14T08:16:51;51090.00;;;-145.42;94.65
49367;BME280;35245;52.026;8.540;2023-06-14T08:19:18;51082.06;;;-145.42;96.54
49367;BME280;35245;52.026;8.540;2023-06-14T08:21:45;51105.84;;;-145.42;95.19
49367;BME280;35245;52.026;8.540;2023-06-14T08:24:13;51086.03;;;-145.42;93.55
49367;BME280;35245;52.026;8.540;2023-06-14T08:26:40;51099.91;;;-145.42;93.36
49367;BME280;35245;52.026;8.540;2023-06-14T08:29:07;51082.06;;;-145.42;94.46
49367;BME280;35245;52.026;8.540;2023-06-14T08:31:34;51066.22;;;-145.42;94.65
49367;BME280;35245;52.026;8.540;2023-06-14T08:34:03;51105.84;;;-145.42;95.21
49367;BME280;35245;52.026;8.540;2023-06-14T08:36:30;51076.13;;;-145.42;95.52
49367;BME280;35245;52.026;8.540;2023-06-14T08:38:57;51078.09;;;-145.42;96.08
49367;BME280;35245;52.026;8.540;2023-06-14T08:41:24;51111.81;;;-145.42;94.44
49367;BME280;35245;52.026;8.540;2023-06-14T08:43:53;51086.03;;;-145.42;95.75
49367;BME280;35245;52.026;8.540;2023-06-14T08:46:20;51072.16;;;-145.42;95.19
49367;BME280;35245;52.026;8.540;2023-06-14T08:48:48;51068.19;;;-145.42;93.10
49367;BME280;35245;52.026;8.540;2023-06-14T08:51:19;51099.91;;;-145.42;91.06
49367;BME280;35245;52.026;8.540;2023-06-14T08:53:53;51080.09;;;-145.42;93.29
49367;BME280;35245;52.026;8.540;2023-06-14T08:56:24;51082.06;;;-145.42;90.00
49367;BME280;35245;52.026;8.540;2023-06-14T08:58:54;51074.13;;;-145.42;90.50
49367;BME280;35245;52.026;8.540;2023-06-14T09:01:22;51088.00;;;-145.42;89.45
49367;BME280;35245;52.026;8.540;2023-06-14T09:03:50;51099.91;;;-145.42;89.38
49367;BME280;35245;52.026;8.540;2023-06-14T09:06:19;51129.63;;;-145.42;89.11
49367;BME280;35245;52.026;8.540;2023-06-14T09:08:48;51115.75;;;-145.42;88.79
49367;BME280;35245;52.026;8.540;2023-06-14T09:11:18;51078.09;;;-145.42;87.53
49367;BME280;35245;52.026;8.540;2023-06-14T09:13:46;51119.72;;;-145.42;87.49
49367;BME280;35245;52.026;8.540;2023-06-14T09:16:13;51099.91;;;-145.42;87.84
49367;BME280;35245;52.026;8.540;2023-06-14T09:18:41;51082.06;;;-145.42;87.13
49367;BME280;35245;52.026;8.540;2023-06-14T09:21:11;51091.97;;;-145.42;87.45
49367;BME280;35245;52.026;8.540;2023-06-14T09:23:42;51121.72;;;-145.42;87.16
49367;BME280;35245;52.026;8.540;2023-06-14T09:26:10;51099.91;;;-145.42;87.38
49367;BME280;35245;52.026;8.540;2023-06-14T09:28:42;51113.78;;;-145.42;86.25
49367;BME280;35245;52.026;8.540;2023-06-14T09:31:11;51101.88;;;-145.42;87.34
49367;BME280;35245;52.026;8.540;2023-06-14T09:33:38;51121.72;;;-145.42;85.30
49367;BME280;35245;52.026;8.540;2023-06-14T09:36:12;51105.84;;;-145.42;86.30
49367;BME280;35245;52.026;8.540;2023-06-14T09:38:41;51141.53;;;-145.42;86.72
49367;BME280;35245;52.026;8.540;2023-06-14T09:41:08;51109.81;;;-145.42;85.49
49367;BME280;35245;52.026;8.540;2023-06-14T09:43:36;51088.00;;;-145.42;87.33
49367;BME280;35245;52.026;8.540;2023-06-14T09:46:05;51119.72;;;-145.42;84.34
49367;BME280;35245;52.026;8.540;2023-06-14T09:48:33;51125.69;;;-145.42;82.00
49367;BME280;35245;52.026;8.540;2023-06-14T09:51:01;51121.72;;;-145.42;82.84
49367;BME280;35245;52.026;8.540;2023-06-14T09:53:30;51145.50;;;-145.42;80.18
49367;BME280;35245;52.026;8.540;2023-06-14T09:56:01;51133.59;;;-145.42;81.87
49367;BME280;35245;52.026;8.540;2023-06-14T09:58:29;51115.75;;;-145.42;81.57
49367;BME280;35245;52.026;8.540;2023-06-14T10:00:57;51147.47;;;-145.42;81.10
49367;BME280;35245;52.026;8.540;2023-06-14T10:03:28;51129.63;;;-145.42;79.51
49367;BME280;35245;52.026;8.540;2023-06-14T10:05:58;51145.50;;;-145.42;78.97
49367;BME280;35245;52.026;8.540;2023-06-14T10:08:31;51145.50;;;-145.42;78.25
49367;BME280;35245;52.026;8.540;2023-06-14T10:11:01;51139.56;;;-145.42;77.47
49367;BME280;35245;52.026;8.540;2023-06-14T10:13:31;51141.53;;;-145.42;76.93
49367;BME280;35245;52.026;8.540;2023-06-14T10:16:08;51125.69;;;-145.42;78.00
49367;BME280;35245;52.026;8.540;2023-06-14T10:18:47;51139.56;;;-145.42;77.01
49367;BME280;35245;52.026;8.540;2023-06-14T10:21:22;51107.84;;;-145.42;77.29
49367;BME280;35245;52.026;8.540;2023-06-14T10:23:52;51097.91;;;-145.42;78.82
49367;BME280;35245;52.026;8.540;2023-06-14T10:26:22;51133.59;;;-145.42;79.68
49367;BME280;35245;52.026;8.540;2023-06-14T10:28:59;51137.56;;;-145.42;78.49
49367;BME280;35245;52.026;8.540;2023-06-14T10:31:44;51149.47;;;-145.42;77.92
49367;BME280;35245;52.026;8.540;2023-06-14T10:34:12;51177.22;;;-145.42;77.18
49367;BME280;35245;52.026;8.540;2023-06-14T10:36:42;51155.41;;;-145.42;77.26
49367;BME280;35245;52.026;8.540;2023-06-14T10:39:15;51135.59;;;-145.42;76.42
49367;BME280;35245;52.026;8.540;2023-06-14T10:41:53;51137.56;;;-145.42;77.01
49367;BME280;35245;52.026;8.540;2023-06-14T10:44:49;51163.34;;;-145.42;76.49
49367;BME280;35245;52.026;8.540;2023-06-14T10:47:26;51105.84;;;-145.42;74.40
49367;BME280;35245;52.026;8.540;2023-06-14T10:49:55;51155.41;;;-145.42;71.71
49367;BME280;35245;52.026;8.540;2023-06-14T10:52:26;51165.31;;;-145.42;72.68
49367;BME280;35245;52.026;8.540;2023-06-14T10:55:12;51155.41;;;-145.42;72.52
49367;BME280;35245;52.026;8.540;2023-06-14T10:57:44;51143.50;;;-145.42;71.63
49367;BME280;35245;52.026;8.540;2023-06-14T11:00:14;51133.59;;;-145.42;70.74
49367;BME280;35245;52.026;8.540;2023-06-14T11:06:14;51149.47;;;-145.42;71.66
49367;BME280;35245;52.026;8.540;2023-06-14T11:09:35;51163.34;;;-145.42;68.99
49367;BME280;35245;52.026;8.540;2023-06-14T11:12:10;51135.59;;;-145.42;69.39
49367;BME280;35245;52.026;8.540;2023-06-14T11:14:39;51137.56;;;-145.42;68.79
49367;BME280;35245;52.026;8.540;2023-06-14T11:17:06;51149.47;;;-145.42;68.64
49367;BME280;35245;52.026;8.540;2023-06-14T11:19:34;51171.28;;;-145.42;67.77
49367;BME280;35245;52.026;8.540;2023-06-14T11:22:02;51161.34;;;-145.42;67.77
49367;BME280;35245;52.026;8.540;2023-06-14T11:24:29;51181.19;;;-145.42;66.01
49367;BME280;35245;52.026;8.540;2023-06-14T11:26:56;51193.06;;;-145.42;64.95
49367;BME280;35245;52.026;8.540;2023-06-14T11:29:23;51183.16;;;-145.42;65.06
49367;BME280;35245;52.026;8.540;2023-06-14T11:31:52;51163.34;;;-145.42;64.64
49367;BME280;35245;52.026;8.540;2023-06-14T11:34:19;51167.31;;;-145.42;64.27
49367;BME280;35245;52.026;8.540;2023-06-14T11:36:47;51187.13;;;-145.42;64.93
49367;BME280;35245;52.026;8.540;2023-06-14T11:39:14;51208.94;;;-145.42;64.67
49367;BME280;35245;52.026;8.540;2023-06-14T11:41:43;51173.25;;;-145.42;62.66
49367;BME280;35245;52.026;8.540;2023-06-14T11:44:11;51230.75;;;-145.42;53.50
49367;BME280;35245;52.026;8.540;2023-06-14T11:46:38;51319.94;;;-145.42;45.03
49367;BME280;35245;52.026;8.540;2023-06-14T11:49:07;51397.25;;;-145.42;36.25
49367;BME280;35245;52.026;8.540;2023-06-14T11:51:35;51417.06;;;-145.42;33.62
49367;BME280;35245;52.026;8.540;2023-06-14T11:54:04;51482.50;;;-145.42;31.67
49367;BME280;35245;52.026;8.540;2023-06-14T11:56:32;51534.03;;;-145.42;30.99
49367;BME280;35245;52.026;8.540;2023-06-14T11:58:59;51607.41;;;-145.42;29.40
49367;BME280;35245;52.026;8.540;2023-06-14T12:01:27;51593.50;;;-145.42;29.33
49367;BME280;35245;52.026;8.540;2023-06-14T12:03:54;51641.09;;;-145.42;28.33
49367;BME280;35245;52.026;8.540;2023-06-14T12:06:30;51744.19;;;-145.42;27.66
49367;BME280;35245;52.026;8.540;2023-06-14T12:09:04;51641.09;;;-145.42;28.68
49367;BME280;35245;52.026;8.540;2023-06-14T12:11:34;51625.22;;;-145.42;27.44
49367;BME280;35245;52.026;8.540;2023-06-14T12:14:03;51730.31;;;-145.42;26.67
49367;BME280;35245;52.026;8.540;2023-06-14T12:16:34;51710.47;;;-145.42;25.30
49367;BME280;35245;52.026;8.540;2023-06-14T12:19:09;51817.53;;;-145.42;23.96
49367;BME280;35245;52.026;8.540;2023-06-14T12:21:39;51867.09;;;-145.42;24.09
49367;BME280;35245;52.026;8.540;2023-06-14T12:24:08;51875.03;;;-145.42;24.77
49367;BME280;35245;52.026;8.540;2023-06-14T12:26:38;51680.75;;;-145.42;26.14
49367;BME280;35245;52.026;8.540;2023-06-14T12:29:06;51649.03;;;-145.42;25.98
49367;BME280;35245;52.026;8.540;2023-06-14T12:31:34;51694.63;;;-145.42;24.72
49367;BME280;35245;52.026;8.540;2023-06-14T12:34:01;51863.16;;;-145.42;23.75
49367;BME280;35245;52.026;8.540;2023-06-14T12:36:29;51825.47;;;-145.42;23.05
49367;BME280;35245;52.026;8.540;2023-06-14T12:38:59;51982.09;;;-145.42;22.88
49367;BME280;35245;52.026;8.540;2023-06-14T12:41:26;52027.72;;;-145.42;22.51
49367;BME280;35245;52.026;8.540;2023-06-14T12:43:53;51859.19;;;-145.42;23.54
49367;BME280;35245;52.026;8.540;2023-06-14T12:46:21;51837.38;;;-145.42;23.22